createdAt,value
2019-02-21T00:00:33.074Z,29.33
2019-02-21T00:19:26.789Z,34.80
2019-02-21T00:22:04.096Z,40.50
2019-02-21T00:24:32.496Z,37.17
2019-02-21T00:27:05.256Z,35.67
2019-02-21T00:29:33.681Z,34.73
2019-02-21T00:32:04.830Z,34.53
2019-02-21T00:34:33.460Z,35.60
2019-02-21T00:37:03.497Z,30.83
2019-02-21T00:39:34.911Z,29.40
2019-02-21T00:42:07.786Z,32.50
2019-02-21T00:44:39.118Z,29.10
2019-02-21T00:47:10.505Z,31.07
2019-02-21T00:49:43.698Z,36.17
2019-02-21T00:52:12.045Z,33.00
2019-02-21T00:54:46.164Z,32.03
2019-02-21T00:57:16.447Z,29.50
2019-02-21T00:59:58.426Z,33.07
2019-02-21T01:02:31.357Z,38.67
2019-02-21T01:05:02.877Z,36.57
2019-02-21T01:07:35.800Z,35.53
2019-02-21T01:10:10.845Z,34.67
2019-02-21T01:12:40.911Z,30.57
2019-02-21T01:15:10.580Z,35.97
2019-02-21T01:17:43.058Z,37.67
2019-02-21T01:20:11.395Z,37.83
2019-02-21T01:22:45.961Z,40.30
2019-02-21T01:25:14.370Z,34.57
2019-02-21T01:27:48.060Z,45.37
2019-02-21T01:30:26.713Z,38.47
2019-02-21T01:32:56.690Z,30.03
2019-02-21T01:35:25.797Z,32.23
2019-02-21T01:37:54.186Z,28.37
2019-02-21T01:40:28.710Z,30.83
2019-02-21T01:43:03.134Z,29.40
2019-02-21T01:45:31.521Z,31.87
2019-02-21T01:48:01.445Z,30.20
2019-02-21T01:50:35.305Z,32.83
2019-02-21T01:53:03.704Z,30.30
2019-02-21T01:55:35.105Z,35.43
2019-02-21T01:58:06.482Z,33.07
2019-02-21T02:00:34.865Z,27.60
2019-02-21T02:03:05.929Z,29.67
2019-02-21T02:05:35.958Z,25.60
2019-02-21T02:08:07.085Z,28.40
2019-02-21T02:10:35.473Z,32.67
2019-02-21T02:13:06.817Z,32.33
2019-02-21T02:15:36.837Z,36.90
2019-02-21T02:18:05.443Z,41.60
2019-02-21T02:20:33.853Z,38.30
2019-02-21T02:23:10.906Z,32.27
2019-02-21T02:25:44.770Z,35.77
2019-02-21T02:28:22.420Z,44.83
2019-02-21T02:30:50.818Z,40.00
2019-02-21T02:33:19.451Z,39.37
2019-02-21T02:36:00.724Z,44.73
2019-02-21T02:38:33.818Z,43.27
2019-02-21T02:41:02.214Z,56.63
2019-02-21T02:43:32.241Z,49.70
2019-02-21T02:46:00.657Z,51.70
2019-02-21T02:48:31.765Z,53.37
2019-02-21T02:51:07.366Z,57.20
2019-02-21T02:53:38.885Z,51.30
2019-02-21T02:56:11.610Z,51.83
2019-02-21T02:58:57.711Z,48.37
2019-02-21T03:01:34.680Z,44.93
2019-02-21T03:04:01.066Z,43.17
2019-02-21T03:06:33.045Z,48.67
2019-02-21T03:09:05.057Z,39.03
2019-02-21T03:11:33.457Z,31.43
2019-02-21T03:14:02.025Z,44.70
2019-02-21T03:16:30.685Z,39.20
2019-02-21T03:19:00.730Z,38.73
2019-02-21T03:21:31.834Z,41.10
2019-02-21T03:24:01.889Z,43.13
2019-02-21T03:26:32.917Z,41.93
2019-02-21T03:29:07.121Z,52.57
2019-02-21T03:31:53.399Z,43.10
2019-02-21T03:34:10.122Z,40.30
2019-02-21T03:36:44.489Z,39.97
2019-02-21T03:39:12.860Z,44.43
2019-02-21T03:41:41.410Z,38.67
2019-02-21T03:44:12.501Z,38.73
2019-02-21T03:46:43.928Z,36.37
2019-02-21T03:49:16.397Z,31.27
2019-02-21T03:51:47.721Z,30.23
2019-02-21T03:54:20.939Z,29.67
2019-02-21T03:56:52.337Z,33.10
2019-02-21T03:59:23.433Z,34.40
2019-02-21T04:01:51.852Z,35.50
2019-02-21T04:04:26.277Z,30.43
2019-02-21T04:06:58.210Z,28.07
2019-02-21T04:09:29.510Z,35.70
2019-02-21T04:12:01.993Z,35.17
2019-02-21T04:14:33.177Z,44.30
2019-02-21T04:17:01.573Z,39.07
2019-02-21T04:19:35.809Z,44.07
2019-02-21T04:22:12.821Z,37.30
2019-02-21T04:24:41.374Z,45.73
2019-02-21T04:27:12.841Z,39.67
2019-02-21T04:29:41.243Z,41.67
2019-02-21T04:32:18.081Z,41.47
2019-02-21T04:34:49.186Z,40.23
2019-02-21T04:37:17.575Z,32.93
2019-02-21T04:39:48.690Z,34.30
2019-02-21T04:42:17.315Z,43.43
2019-02-21T04:44:51.455Z,48.83
2019-02-21T04:47:20.102Z,60.03
2019-02-21T04:50:00.632Z,73.10
2019-02-21T04:52:29.002Z,78.07
2019-02-21T04:55:08.685Z,73.60
2019-02-21T04:57:37.086Z,53.10
2019-02-21T05:00:16.036Z,62.33
2019-02-21T05:02:46.137Z,47.97
2019-02-21T05:05:19.940Z,52.77
2019-02-21T05:07:48.329Z,49.77
2019-02-21T05:10:18.605Z,55.70
2019-02-21T05:12:47.049Z,58.77
2019-02-21T05:15:18.351Z,60.80
2019-02-21T05:17:46.742Z,57.73
2019-02-21T05:20:16.785Z,49.30
2019-02-21T05:22:46.815Z,58.47
2019-02-21T05:25:15.214Z,65.43
2019-02-21T05:27:47.906Z,76.63
2019-02-21T05:30:26.470Z,68.77
2019-02-21T05:33:02.711Z,71.97
2019-02-21T05:35:50.941Z,62.87
2019-02-21T05:38:20.973Z,62.03
2019-02-21T05:41:04.394Z,62.70
2019-02-21T05:43:37.188Z,59.97
2019-02-21T05:46:09.134Z,67.57
2019-02-21T05:48:48.300Z,69.77
2019-02-21T05:51:21.307Z,72.47
2019-02-21T05:53:54.002Z,65.80
2019-02-21T05:56:26.877Z,64.27
2019-02-21T05:59:23.674Z,59.77
2019-02-21T06:01:59.671Z,52.37
2019-02-21T06:04:45.938Z,50.90
2019-02-21T06:07:24.983Z,51.80
2019-02-21T06:10:11.555Z,48.37
2019-02-21T06:12:50.150Z,53.87
2019-02-21T06:15:35.245Z,44.23
2019-02-21T06:18:10.841Z,44.47
2019-02-21T06:20:58.938Z,51.77
2019-02-21T06:23:41.089Z,44.93
2019-02-21T06:26:14.028Z,43.47
2019-02-21T06:28:53.592Z,46.27
2019-02-21T06:31:25.390Z,49.57
2019-02-21T06:33:55.424Z,43.03
2019-02-21T06:36:32.739Z,40.23
2019-02-21T06:39:01.151Z,45.83
2019-02-21T06:41:31.241Z,42.47
2019-02-21T06:43:59.632Z,41.50
2019-02-21T06:46:30.662Z,47.10
2019-02-21T06:48:59.285Z,46.80
2019-02-21T06:51:30.724Z,49.07
2019-02-21T06:54:02.070Z,50.00
2019-02-21T06:56:30.765Z,42.43
2019-02-21T06:59:02.361Z,54.83
2019-02-21T07:01:32.392Z,56.23
2019-02-21T07:04:09.547Z,48.27
2019-02-21T07:06:39.206Z,50.67
2019-02-21T07:09:12.857Z,50.87
2019-02-21T07:11:45.931Z,53.37
2019-02-21T07:14:16.001Z,47.10
2019-02-21T07:16:44.397Z,50.90
2019-02-21T07:19:13.741Z,42.13
2019-02-21T07:21:42.125Z,50.30
2019-02-21T07:24:10.522Z,43.37
2019-02-21T07:26:38.921Z,41.97
2019-02-21T07:29:10.050Z,50.50
2019-02-21T07:31:41.393Z,53.93
2019-02-21T07:34:09.778Z,45.53
2019-02-21T07:36:38.184Z,36.43
2019-02-21T07:39:18.370Z,36.10
2019-02-21T07:41:41.577Z,45.47
2019-02-21T07:44:12.369Z,30.67
2019-02-21T07:46:39.561Z,29.77
2019-02-21T07:49:13.671Z,28.00
2019-02-21T07:51:42.065Z,36.37
2019-02-21T07:54:10.453Z,32.83
2019-02-21T07:56:42.500Z,27.40
2019-02-21T07:59:14.368Z,38.13
2019-02-21T08:01:49.665Z,28.83
2019-02-21T08:04:19.303Z,28.60
2019-02-21T08:06:47.681Z,26.00
2019-02-21T08:09:18.877Z,27.10
2019-02-21T08:11:49.498Z,25.87
2019-02-21T08:14:18.138Z,32.33
2019-02-21T08:16:48.181Z,30.00
2019-02-21T08:19:17.979Z,26.87
2019-02-21T08:21:46.481Z,29.87
2019-02-21T08:24:15.564Z,27.83
2019-02-21T08:26:47.151Z,29.90
2019-02-21T08:29:20.546Z,29.60
2019-02-21T08:31:51.135Z,29.40
2019-02-21T08:34:24.132Z,28.77
2019-02-21T08:36:55.472Z,29.30
2019-02-21T08:39:23.866Z,31.43
2019-02-21T08:41:55.043Z,30.10
2019-02-21T08:44:22.384Z,25.30
2019-02-21T08:46:53.417Z,27.70
2019-02-21T08:49:20.898Z,26.23
2019-02-21T08:51:49.309Z,24.03
2019-02-21T08:54:19.585Z,30.43
2019-02-21T08:56:47.979Z,33.63
2019-02-21T08:59:16.371Z,27.30
2019-02-21T09:01:44.752Z,23.50
2019-02-21T09:04:26.448Z,27.47
2019-02-21T09:06:43.270Z,25.90
2019-02-21T09:09:11.671Z,24.70
2019-02-21T09:11:40.072Z,25.97
2019-02-21T09:14:11.419Z,24.27
2019-02-21T09:16:39.802Z,24.73
2019-02-21T09:19:08.677Z,23.67
2019-02-21T09:21:39.130Z,23.20
2019-02-21T09:24:07.756Z,21.00
2019-02-21T09:26:36.196Z,21.93
2019-02-21T09:29:04.638Z,23.10
2019-02-21T09:31:33.041Z,22.77
2019-02-21T09:34:01.668Z,23.23
2019-02-21T09:36:30.303Z,22.00
2019-02-21T09:38:58.686Z,23.30
2019-02-21T09:41:28.713Z,19.83
2019-02-21T09:43:57.692Z,24.93
2019-02-21T09:46:26.330Z,28.50
2019-02-21T09:48:54.718Z,32.20
2019-02-21T09:51:23.351Z,24.50
2019-02-21T09:53:53.049Z,24.07
2019-02-21T09:56:29.757Z,28.97
2019-02-21T09:58:52.808Z,28.33
2019-02-21T10:01:22.825Z,24.33
2019-02-21T10:03:51.222Z,20.57
2019-02-21T10:06:23.069Z,27.30
2019-02-21T10:08:51.860Z,22.53
2019-02-21T10:11:20.241Z,24.17
2019-02-21T10:13:48.625Z,24.03
2019-02-21T10:16:17.174Z,20.00
2019-02-21T10:18:45.674Z,25.37
2019-02-21T10:21:15.982Z,26.10
2019-02-21T10:23:47.318Z,25.43
2019-02-21T10:26:15.721Z,22.97
2019-02-21T10:28:45.227Z,24.10
2019-02-21T10:31:18.201Z,25.77
2019-02-21T10:33:47.475Z,28.53
2019-02-21T10:36:20.955Z,23.70
2019-02-21T10:38:52.258Z,27.73
2019-02-21T10:41:20.645Z,28.83
2019-02-21T10:43:49.039Z,24.77
2019-02-21T10:46:17.431Z,22.97
2019-02-21T10:48:48.479Z,23.43
2019-02-21T10:51:18.669Z,26.20
2019-02-21T10:53:53.021Z,24.47
2019-02-21T10:56:21.630Z,24.70
2019-02-21T10:58:50.046Z,26.57
2019-02-21T11:01:21.521Z,22.10
2019-02-21T11:03:54.490Z,26.27
2019-02-21T11:06:27.426Z,28.00
2019-02-21T11:08:59.264Z,21.73
2019-02-21T11:11:33.541Z,21.20
2019-02-21T11:14:09.397Z,22.87
2019-02-21T11:16:42.077Z,26.10
2019-02-21T11:19:20.207Z,26.10
2019-02-21T11:21:46.078Z,25.00
2019-02-21T11:24:14.470Z,26.00
2019-02-21T11:26:44.751Z,22.60
2019-02-21T11:29:19.152Z,25.90
2019-02-21T11:31:57.928Z,24.77
2019-02-21T11:34:31.935Z,23.50
2019-02-21T11:37:00.333Z,31.33
2019-02-21T11:39:32.497Z,25.73
2019-02-21T11:42:01.063Z,23.97
2019-02-21T11:44:32.323Z,24.07
2019-02-21T11:47:00.722Z,24.03
2019-02-21T11:49:33.831Z,23.50
2019-02-21T11:52:10.132Z,23.97
2019-02-21T11:54:41.371Z,22.37
2019-02-21T11:57:09.821Z,23.23
2019-02-21T11:59:38.738Z,26.53
2019-02-21T12:02:07.194Z,26.13
2019-02-21T12:04:41.435Z,27.50
2019-02-21T12:07:09.821Z,25.70
2019-02-21T12:09:38.222Z,23.37
2019-02-21T12:12:06.851Z,22.80
2019-02-21T12:14:35.353Z,21.83
2019-02-21T12:17:07.249Z,23.80
2019-02-21T12:19:38.402Z,26.13
2019-02-21T12:22:07.046Z,30.50
2019-02-21T12:24:38.451Z,28.17
2019-02-21T12:27:06.840Z,23.60
2019-02-21T12:29:35.241Z,27.17
2019-02-21T12:32:03.889Z,26.17
2019-02-21T12:34:35.313Z,26.83
2019-02-21T12:37:03.763Z,26.97
2019-02-21T12:39:32.437Z,28.33
2019-02-21T12:42:01.041Z,24.17
2019-02-21T12:44:29.428Z,29.40
2019-02-21T12:46:57.862Z,31.93
2019-02-21T12:49:29.218Z,25.33
2019-02-21T12:51:57.711Z,29.00
2019-02-21T12:54:31.607Z,28.40
2019-02-21T12:57:00.005Z,27.50
2019-02-21T12:59:28.392Z,28.00
2019-02-21T13:01:59.444Z,29.60
2019-02-21T13:04:33.353Z,26.43
2019-02-21T13:07:01.093Z,33.50
2019-02-21T13:09:29.765Z,28.33
2019-02-21T13:12:01.046Z,25.93
2019-02-21T13:14:29.556Z,29.10
2019-02-21T13:17:00.781Z,23.27
2019-02-21T13:19:33.925Z,28.90
2019-02-21T13:22:02.554Z,23.30
2019-02-21T13:24:30.949Z,25.60
2019-02-21T13:27:06.350Z,27.67
2019-02-21T13:29:34.763Z,25.77
2019-02-21T13:32:04.183Z,23.77
2019-02-21T13:34:35.526Z,27.50
2019-02-21T13:37:07.914Z,27.60
2019-02-21T13:39:39.077Z,24.47
2019-02-21T13:42:07.503Z,26.10
2019-02-21T13:44:35.893Z,21.35
2019-02-21T13:47:04.323Z,28.47
2019-02-21T13:49:33.062Z,23.47
2019-02-21T13:52:01.494Z,23.40
2019-02-21T13:54:29.881Z,24.98
2019-02-21T13:57:05.057Z,27.45
2019-02-21T13:59:35.002Z,42.77
2019-02-21T14:02:04.530Z,25.67
2019-02-21T14:04:33.165Z,23.17
2019-02-21T14:07:01.565Z,30.13
2019-02-21T14:09:29.980Z,27.63
2019-02-21T14:12:00.009Z,28.83
2019-02-21T14:14:30.981Z,26.50
2019-02-21T14:17:01.689Z,30.07
2019-02-21T14:19:33.283Z,31.73
2019-02-21T14:22:08.237Z,35.17
2019-02-21T14:24:37.382Z,30.10
2019-02-21T14:27:10.132Z,27.73
2019-02-21T14:29:39.630Z,32.07
2019-02-21T14:32:09.770Z,32.53
2019-02-21T14:34:43.748Z,31.13
2019-02-21T14:37:12.365Z,28.63
2019-02-21T14:39:41.013Z,29.10
2019-02-21T14:42:12.158Z,24.90
2019-02-21T14:44:41.008Z,23.43
2019-02-21T14:47:09.394Z,23.77
2019-02-21T14:49:40.703Z,24.93
2019-02-21T14:52:17.864Z,23.20
2019-02-21T14:54:46.253Z,21.60
2019-02-21T14:57:17.342Z,20.70
2019-02-21T14:59:45.733Z,28.43
2019-02-21T15:02:17.078Z,26.60
2019-02-21T15:04:46.849Z,26.17
2019-02-21T15:07:17.929Z,29.07
2019-02-21T15:09:46.417Z,28.67
2019-02-21T15:12:20.533Z,28.10
2019-02-21T15:14:51.882Z,28.30
2019-02-21T15:17:20.273Z,28.57
2019-02-21T15:19:48.670Z,26.83
2019-02-21T15:22:25.322Z,27.53
2019-02-21T15:24:58.034Z,28.10
2019-02-21T15:27:26.473Z,32.53
2019-02-21T15:29:57.643Z,32.60
2019-02-21T15:32:26.557Z,33.90
2019-02-21T15:34:59.392Z,27.77
2019-02-21T15:37:29.381Z,29.47
2019-02-21T15:39:57.789Z,29.73
2019-02-21T15:42:26.183Z,30.57
2019-02-21T15:44:54.577Z,31.63
2019-02-21T15:47:23.118Z,31.47
2019-02-21T15:49:52.275Z,33.57
2019-02-21T15:52:22.527Z,29.20
2019-02-21T15:54:53.714Z,31.93
2019-02-21T15:57:22.113Z,28.50
2019-02-21T15:59:56.356Z,29.47
2019-02-21T16:02:24.778Z,31.00
2019-02-21T16:04:53.176Z,32.27
2019-02-21T16:07:21.570Z,29.13
2019-02-21T16:09:49.974Z,35.20
2019-02-21T16:12:20.123Z,32.00
2019-02-21T16:14:49.469Z,28.93
2019-02-21T16:17:17.933Z,31.80
2019-02-21T16:19:46.406Z,32.93
2019-02-21T16:22:15.940Z,31.97
2019-02-21T16:24:44.328Z,34.37
2019-02-21T16:27:12.725Z,32.60
2019-02-21T16:29:42.773Z,33.87
2019-02-21T16:32:12.797Z,33.43
2019-02-21T16:34:41.205Z,34.83
2019-02-21T16:37:10.561Z,31.03
2019-02-21T16:39:38.962Z,28.70
2019-02-21T16:42:08.889Z,32.30
2019-02-21T16:44:41.612Z,37.97
2019-02-21T16:47:15.644Z,35.33
2019-02-21T16:49:45.377Z,34.73
2019-02-21T16:52:14.010Z,30.53
2019-02-21T16:54:42.637Z,30.07
2019-02-21T16:57:12.672Z,36.87
2019-02-21T16:59:43.271Z,33.40
2019-02-21T17:02:13.931Z,37.83
2019-02-21T17:04:42.588Z,34.77
2019-02-21T17:07:14.361Z,32.47
2019-02-21T17:09:41.107Z,36.27
2019-02-21T17:12:12.768Z,34.67
2019-02-21T17:14:45.341Z,35.80
2019-02-21T17:17:13.729Z,37.67
2019-02-21T17:19:45.177Z,42.30
2019-02-21T17:22:15.205Z,42.13
2019-02-21T17:24:46.309Z,41.23
2019-02-21T17:27:14.726Z,37.73
2019-02-21T17:29:47.455Z,42.27
2019-02-21T17:32:21.625Z,39.40
2019-02-21T17:34:54.493Z,43.83
2019-02-21T17:37:25.368Z,44.03
2019-02-21T17:39:54.501Z,37.70
2019-02-21T17:42:25.878Z,40.13
2019-02-21T17:44:54.268Z,39.53
2019-02-21T17:47:24.365Z,42.67
2019-02-21T17:49:54.380Z,42.27
2019-02-21T17:52:25.482Z,47.90
2019-02-21T17:54:56.797Z,45.17
2019-02-21T17:57:25.418Z,43.20
2019-02-21T17:59:53.805Z,41.93
2019-02-21T18:02:22.243Z,45.80
2019-02-21T18:04:57.289Z,41.07
2019-02-21T18:07:35.816Z,46.87
2019-02-21T18:09:55.932Z,49.47
2019-02-21T18:12:27.262Z,43.43
2019-02-21T18:14:57.307Z,45.47
2019-02-21T18:17:26.520Z,55.50
2019-02-21T18:19:55.605Z,47.73
2019-02-21T18:22:26.989Z,48.83
2019-02-21T18:25:01.196Z,48.80
2019-02-21T18:27:29.605Z,46.07
2019-02-21T18:30:04.866Z,46.43
2019-02-21T18:32:33.274Z,50.57
2019-02-21T18:35:01.694Z,47.57
2019-02-21T18:37:46.931Z,50.63
2019-02-21T18:40:20.786Z,45.50
2019-02-21T18:42:49.863Z,46.80
2019-02-21T18:45:19.650Z,46.73
2019-02-21T18:47:48.064Z,44.80
2019-02-21T18:50:16.518Z,47.47
2019-02-21T18:52:47.620Z,49.63
2019-02-21T18:55:19.344Z,43.07
2019-02-21T18:57:47.745Z,41.50
2019-02-21T19:00:28.380Z,46.00
2019-02-21T19:02:59.771Z,42.63
2019-02-21T19:05:36.036Z,46.30
2019-02-21T19:08:05.410Z,45.50
2019-02-21T19:10:33.001Z,44.47
2019-02-21T19:13:04.075Z,47.20
2019-02-21T19:15:33.821Z,45.93
2019-02-21T19:18:07.327Z,47.40
2019-02-21T19:20:36.478Z,45.50
2019-02-21T19:23:04.869Z,45.70
2019-02-21T19:25:33.528Z,44.80
2019-02-21T19:28:01.921Z,48.63
2019-02-21T19:30:51.723Z,46.13
2019-02-21T19:33:25.328Z,46.40
2019-02-21T19:35:53.955Z,47.37
2019-02-21T19:38:22.658Z,44.73
2019-02-21T19:40:51.043Z,50.90
2019-02-21T19:43:20.218Z,52.60
2019-02-21T19:45:48.606Z,47.20
2019-02-21T19:48:17.353Z,45.53
2019-02-21T19:50:45.734Z,43.80
2019-02-21T19:53:14.611Z,46.33
2019-02-21T19:55:47.365Z,41.03
2019-02-21T19:58:15.786Z,44.67
2019-02-21T20:00:45.391Z,42.07
2019-02-21T20:03:13.972Z,51.47
2019-02-21T20:05:42.373Z,45.03
2019-02-21T20:08:21.098Z,46.73
2019-02-21T20:10:43.745Z,50.87
2019-02-21T20:13:15.319Z,48.93
2019-02-21T20:15:48.040Z,49.03
2019-02-21T20:18:21.048Z,46.23
2019-02-21T20:20:49.435Z,47.50
2019-02-21T20:23:18.653Z,47.77
2019-02-21T20:25:47.289Z,42.60
2019-02-21T20:28:19.974Z,49.77
2019-02-21T20:30:51.600Z,46.47
2019-02-21T20:33:54.324Z,50.37
2019-02-21T20:36:22.722Z,40.23
2019-02-21T20:38:51.135Z,48.50
2019-02-21T20:41:21.097Z,46.43
2019-02-21T20:43:53.268Z,46.90
2019-02-21T20:46:24.098Z,46.23
2019-02-21T20:48:55.803Z,44.00
2019-02-21T20:51:24.422Z,39.17
2019-02-21T20:53:56.106Z,41.27
2019-02-21T20:56:34.477Z,42.13
2019-02-21T20:59:04.509Z,45.87
2019-02-21T21:01:33.158Z,44.50
2019-02-21T21:04:01.547Z,43.73
2019-02-21T21:06:30.433Z,44.90
2019-02-21T21:08:59.593Z,50.40
2019-02-21T21:11:32.233Z,47.07
2019-02-21T21:14:07.802Z,40.97
2019-02-21T21:16:37.825Z,45.73
2019-02-21T21:19:09.033Z,43.27
2019-02-21T21:21:37.437Z,40.87
2019-02-21T21:24:11.333Z,41.37
2019-02-21T21:26:42.653Z,48.00
2019-02-21T21:29:13.961Z,42.80
2019-02-21T21:31:42.354Z,42.90
2019-02-21T21:34:12.385Z,44.87
2019-02-21T21:36:42.413Z,47.73
2019-02-21T21:39:16.222Z,44.73
2019-02-21T21:41:44.617Z,48.47
2019-02-21T21:44:13.013Z,48.50
2019-02-21T21:46:44.367Z,45.40
2019-02-21T21:49:18.506Z,51.53
2019-02-21T21:51:50.116Z,46.33
2019-02-21T21:54:24.242Z,44.10
2019-02-21T21:56:54.263Z,52.23
2019-02-21T21:59:25.345Z,46.87
2019-02-21T22:01:55.373Z,51.47
2019-02-21T22:04:26.469Z,44.07
2019-02-21T22:06:56.756Z,46.47
2019-02-21T22:09:25.153Z,48.13
2019-02-21T22:11:53.539Z,42.60
2019-02-21T22:14:27.757Z,42.30
2019-02-21T22:16:59.116Z,44.90
2019-02-21T22:19:27.526Z,44.60
2019-02-21T22:21:57.822Z,46.80
2019-02-21T22:24:29.649Z,45.20
2019-02-21T22:27:03.565Z,44.87
2019-02-21T22:29:40.666Z,42.93
2019-02-21T22:32:09.173Z,46.73
2019-02-21T22:34:39.207Z,48.10
2019-02-21T22:37:07.602Z,51.87
2019-02-21T22:39:38.655Z,46.10
2019-02-21T22:42:08.570Z,49.60
2019-02-21T22:44:43.598Z,46.50
2019-02-21T22:47:17.969Z,53.73
2019-02-21T22:49:46.669Z,46.43
2019-02-21T22:52:19.649Z,50.30
2019-02-21T22:54:48.049Z,44.20
2019-02-21T22:57:21.877Z,48.43
2019-02-21T22:59:52.145Z,40.27
2019-02-21T23:02:21.501Z,45.23
2019-02-21T23:05:04.916Z,40.97
2019-02-21T23:07:36.874Z,38.17
2019-02-21T23:10:10.913Z,42.87
2019-02-21T23:12:42.273Z,38.73
2019-02-21T23:15:13.862Z,44.30
2019-02-21T23:17:45.137Z,38.67
2019-02-21T23:20:24.386Z,36.77
2019-02-21T23:23:01.004Z,39.73
2019-02-21T23:25:36.561Z,43.53
2019-02-21T23:28:08.134Z,38.53
2019-02-21T23:30:37.998Z,45.37
2019-02-21T23:33:10.989Z,43.50
2019-02-21T23:35:42.227Z,44.63
2019-02-21T23:38:13.570Z,44.53
2019-02-21T23:40:41.968Z,42.37
2019-02-21T23:43:10.590Z,47.27
2019-02-21T23:45:39.637Z,44.57
2019-02-21T23:48:08.034Z,43.90
2019-02-21T23:50:39.481Z,55.70
2019-02-21T23:53:07.906Z,46.33
2019-02-21T23:55:42.494Z,53.20
2019-02-21T23:58:15.543Z,57.87
